Time;durP1;ratioP1;P1;durP2;ratioP2;P2;SDS_P1;SDS_P2;PMS_P1;PMS_P2;Temp;Humidity;BMP_temperature;BMP_pressure;BME280_temperature;BME280_humidity;BME280_pressure;Samples;Min_cycle;Max_cycle;Signal;HPM_P1;HPM_P2
2023/12/22 00:00:05;;;;;;;7.33;2.10;;;;;;;3.71;100.00;96595.13;1790592;80;25619;-56
2023/12/22 00:02:35;;;;;;;5.85;1.87;;;;;;;3.72;100.00;96587.31;1762330;80;25895;-58
2023/12/22 00:05:04;;;;;;;11.45;4.50;;;;;;;3.72;100.00;96573.18;1790468;80;25196;-58
2023/12/22 00:07:31;;;;;;;18.23;8.20;;;;;;;3.73;100.00;96572.06;1790684;80;27657;-57
2023/12/22 00:09:59;;;;;;;6.95;3.62;;;;;;;3.73;100.00;96567.48;1790289;80;25767;-57
2023/12/22 00:12:28;;;;;;;9.63;2.90;;;;;;;3.73;100.00;96580.08;1761719;80;25559;-54
2023/12/22 00:14:56;;;;;;;9.53;4.03;;;;;;;3.73;100.00;96578.17;1790691;80;25698;-54
2023/12/22 00:17:23;;;;;;;15.38;7.35;;;;;;;3.75;100.00;96576.48;1790440;80;25578;-57
2023/12/22 00:19:51;;;;;;;6.05;3.22;;;;;;;3.76;100.00;96578.59;1762149;80;28010;-57
2023/12/22 00:22:18;;;;;;;9.35;3.55;;;;;;;3.74;100.00;96567.67;1790327;80;25487;-55
2023/12/22 00:24:46;;;;;;;10.00;3.72;;;;;;;3.71;100.00;96572.41;1761639;80;25476;-55
2023/12/22 00:27:14;;;;;;;10.28;3.15;;;;;;;3.68;100.00;96569.11;1790362;80;26191;-55
2023/12/22 00:29:42;;;;;;;11.65;5.35;;;;;;;3.68;100.00;96585.14;1790399;80;25622;-56
2023/12/22 00:32:10;;;;;;;18.10;8.28;;;;;;;3.65;100.00;96586.42;1790576;80;28262;-56
2023/12/22 00:34:38;;;;;;;15.35;5.03;;;;;;;3.62;100.00;96577.19;1790311;80;26171;-56
2023/12/22 00:37:06;;;;;;;7.83;3.12;;;;;;;3.59;100.00;96601.95;1790420;80;25542;-53
2023/12/22 00:39:35;;;;;;;11.00;3.70;;;;;;;3.58;100.00;96608.44;1769744;80;25616;-57
2023/12/22 00:42:04;;;;;;;13.00;3.60;;;;;;;3.59;100.00;96610.53;1759164;81;25405;-55
2023/12/22 00:44:32;;;;;;;12.18;3.22;;;;;;;3.61;100.00;96620.30;1791110;80;27043;-57
2023/12/22 00:47:00;;;;;;;16.27;4.83;;;;;;;3.59;100.00;96634.02;1762577;81;25459;-54
2023/12/22 00:49:28;;;;;;;14.45;4.10;;;;;;;3.58;100.00;96627.14;1790917;80;25476;-57
2023/12/22 00:51:56;;;;;;;12.65;2.92;;;;;;;3.59;100.00;96622.56;1790723;80;25484;-57
2023/12/22 00:54:25;;;;;;;12.20;3.20;;;;;;;3.58;100.00;96625.04;1791399;80;25476;-58
2023/12/22 00:56:53;;;;;;;8.20;3.80;;;;;;;3.61;100.00;96633.66;1791220;80;28094;-54
2023/12/22 00:59:21;;;;;;;17.87;4.53;;;;;;;3.60;100.00;96629.47;1791125;80;25551;-57
2023/12/22 01:01:49;;;;;;;11.65;3.30;;;;;;;3.58;100.00;96627.14;1791322;80;25602;-56
2023/12/22 01:04:17;;;;;;;11.38;2.90;;;;;;;3.55;100.00;96631.27;1791117;80;25750;-54
2023/12/22 01:06:45;;;;;;;15.78;2.92;;;;;;;3.57;100.00;96626.16;1791221;80;25630;-57
2023/12/22 01:09:12;;;;;;;13.15;3.00;;;;;;;3.55;100.00;96633.18;1791165;80;27680;-57
2023/12/22 01:11:40;;;;;;;12.50;2.60;;;;;;;3.54;100.00;96607.58;1791087;80;25396;-55
2023/12/22 01:14:08;;;;;;;14.13;4.53;;;;;;;3.52;100.00;96623.98;1791304;80;25553;-55
2023/12/22 01:16:36;;;;;;;18.35;3.52;;;;;;;3.51;100.00;96618.42;1791179;80;25690;-55
2023/12/22 01:19:03;;;;;;;13.50;3.30;;;;;;;3.52;100.00;96605.82;1766680;80;25431;-57
2023/12/22 01:21:32;;;;;;;10.40;3.55;;;;;;;3.54;100.00;96626.28;1766080;80;27580;-56
2023/12/22 01:23:59;;;;;;;14.38;2.87;;;;;;;3.51;100.00;96611.73;1791122;80;25624;-58
2023/12/22 01:26:27;;;;;;;12.05;3.35;;;;;;;3.50;100.00;96602.73;1791201;80;25393;-56
2023/12/22 01:28:56;;;;;;;13.65;2.87;;;;;;;3.52;100.00;96615.17;1791401;80;26492;-54
2023/12/22 01:31:24;;;;;;;12.58;3.70;;;;;;;3.51;100.00;96611.73;1766657;80;25635;-57
2023/12/22 01:33:53;;;;;;;14.63;3.30;;;;;;;3.51;100.00;96611.73;1791555;80;28291;-57
2023/12/22 01:36:22;;;;;;;10.05;2.42;;;;;;;3.49;100.00;96609.19;1791475;80;26146;-56
2023/12/22 01:38:51;;;;;;;12.37;2.72;;;;;;;3.45;100.00;96609.70;1791385;80;25599;-56
2023/12/22 01:41:17;;;;;;;11.70;2.72;;;;;;;3.44;100.00;96609.47;1791309;80;26175;-55
2023/12/22 01:43:45;;;;;;;9.83;3.33;;;;;;;3.45;100.00;96611.03;1791415;80;25576;-56
2023/12/22 01:46:13;;;;;;;16.55;4.12;;;;;;;3.47;100.00;96612.21;1791412;80;27527;-57
2023/12/22 01:48:41;;;;;;;12.80;2.87;;;;;;;3.48;100.00;96619.69;1791291;80;25380;-55
2023/12/22 01:51:08;;;;;;;15.85;3.37;;;;;;;3.51;100.00;96605.62;1791205;80;25373;-54
2023/12/22 01:53:36;;;;;;;16.15;3.65;;;;;;;3.52;100.00;96605.82;1791070;80;26189;-55
2023/12/22 01:56:06;;;;;;;8.93;2.53;;;;;;;3.50;100.00;96607.51;1764722;80;25497;-55
2023/12/22 01:58:36;;;;;;;;;;;;;;;3.51;100.00;96602.39;1793786;80;27018;-56
2023/12/22 02:01:04;;;;;;;16.77;2.85;;;;;;;3.55;100.00;96599.20;1764276;80;25405;-53
2023/12/22 02:03:32;;;;;;;9.05;2.52;;;;;;;3.56;100.00;96598.66;1791351;80;25420;-57
2023/12/22 02:06:00;;;;;;;9.45;2.80;;;;;;;3.57;100.00;96598.86;1764071;80;25506;-57
2023/12/22 02:08:31;;;;;;;12.10;3.30;;;;;;;3.58;100.00;96609.01;1764278;80;25567;-58
2023/12/22 02:10:59;;;;;;;9.73;3.33;;;;;;;3.57;100.00;96593.52;1761432;80;27652;-56
2023/12/22 02:13:28;;;;;;;15.70;3.25;;;;;;;3.53;100.00;96603.38;1790932;80;25561;-56
2023/12/22 02:16:06;;;;;;;12.10;3.55;;;;;;;3.50;100.00;96597.39;1791093;80;25385;-57
2023/12/22 02:18:39;;;;;;;16.12;4.83;;;;;;;3.49;100.00;96615.88;1791070;80;25405;-57
2023/12/22 02:21:07;;;;;;;17.90;3.98;;;;;;;3.50;100.00;96607.51;1791101;80;25612;-57
2023/12/22 02:23:37;;;;;;;7.17;2.80;;;;;;;3.50;100.00;96602.16;1791182;80;28282;-57
2023/12/22 02:26:28;;;;;;;11.33;3.30;;;;;;;3.49;100.00;96599.30;1791111;80;25452;-57
2023/12/22 02:29:01;;;;;;;14.58;4.05;;;;;;;3.52;100.00;96620.52;1791106;80;25591;-56
2023/12/22 02:31:38;;;;;;;20.68;4.08;;;;;;;3.51;100.00;96606.97;1791015;80;26221;-58
2023/12/22 02:34:15;;;;;;;18.80;4.08;;;;;;;3.51;98.79;96621.09;1762908;80;25440;-56
2023/12/22 02:36:46;;;;;;;15.18;3.02;;;;;;;3.53;100.00;96602.03;1791093;80;28553;-56
2023/12/22 02:39:15;;;;;;;16.60;3.87;;;;;;;3.49;98.94;96576.59;1764253;80;26233;-56
2023/12/22 02:41:43;;;;;;;10.70;3.02;;;;;;;3.51;100.00;96591.70;1791219;80;25615;-56
2023/12/22 02:44:12;;;;;;;12.37;3.67;;;;;;;3.52;99.84;96592.46;1790999;80;25683;-55
2023/12/22 02:46:41;;;;;;;12.07;2.87;;;;;;;3.49;100.00;96591.83;1791039;80;25440;-57
2023/12/22 02:49:10;;;;;;;13.03;3.15;;;;;;;3.46;98.79;96588.55;1791129;80;28140;-55
2023/12/22 02:51:39;;;;;;;;;;;;;;;3.45;98.20;96594.44;1793471;80;26252;-57
2023/12/22 02:54:08;;;;;;;10.95;3.08;;;;;;;3.48;98.57;96565.68;1791385;80;25642;-57
2023/12/22 02:56:36;;;;;;;15.78;3.42;;;;;;;3.46;98.96;96599.23;1791252;80;25555;-56
2023/12/22 02:59:05;;;;;;;16.60;3.62;;;;;;;3.50;97.08;96593.38;1791332;80;25601;-54
2023/12/22 03:01:32;;;;;;;12.05;3.65;;;;;;;3.54;98.82;96626.28;1791305;80;27482;-54
2023/12/22 03:04:00;;;;;;;16.65;3.70;;;;;;;3.59;98.02;96595.84;1766708;80;25591;-57
2023/12/22 03:06:29;;;;;;;11.55;3.27;;;;;;;3.60;98.40;96588.05;1791264;80;25443;-56
2023/12/22 03:08:57;;;;;;;13.30;3.85;;;;;;;3.61;99.02;96581.55;1791372;80;25550;-57
2023/12/22 03:11:25;;;;;;;12.78;3.22;;;;;;;3.63;97.67;96594.78;1791283;80;25397;-56
2023/12/22 03:13:54;;;;;;;17.02;3.80;;;;;;;3.65;97.00;96579.16;1791228;80;27498;-54
2023/12/22 03:16:22;;;;;;;18.50;3.27;;;;;;;3.67;97.33;96572.89;1791293;80;25575;-56
2023/12/22 03:18:50;;;;;;;12.00;3.00;;;;;;;3.68;96.91;96569.11;1791268;80;25567;-56
2023/12/22 03:21:20;;;;;;;11.80;4.33;;;;;;;3.69;96.95;96569.30;1791191;80;26297;-57
2023/12/22 03:23:48;;;;;;;13.40;3.27;;;;;;;3.69;94.36;96567.97;1791341;80;25404;-57
2023/12/22 03:26:15;;;;;;;16.82;3.08;;;;;;;3.71;95.18;96567.07;1791291;80;27519;-53
2023/12/22 03:28:44;;;;;;;12.28;3.62;;;;;;;3.72;93.96;96571.27;1791332;80;26262;-57
2023/12/22 03:31:12;;;;;;;13.30;4.72;;;;;;;3.71;95.49;96583.65;1791237;80;25455;-55
2023/12/22 03:33:41;;;;;;;16.23;4.35;;;;;;;3.64;96.38;96594.98;1791243;80;25635;-53
2023/12/22 03:36:09;;;;;;;18.00;3.58;;;;;;;3.59;96.59;96593.93;1791284;80;25404;-57
2023/12/22 03:38:37;;;;;;;13.72;4.37;;;;;;;3.53;97.08;96589.44;1791364;80;27959;-57
2023/12/22 03:41:06;;;;;;;12.03;2.83;;;;;;;3.46;97.12;96579.95;1791159;80;25545;-57
2023/12/22 03:43:34;;;;;;;15.13;3.47;;;;;;;3.42;97.77;96601.05;1791382;80;25463;-58
2023/12/22 03:46:02;;;;;;;11.35;3.58;;;;;;;3.39;97.36;96595.86;1791193;80;26455;-58
2023/12/22 03:48:30;;;;;;;12.88;3.95;;;;;;;3.35;98.37;96603.80;1791386;80;25576;-57
2023/12/22 03:51:00;;;;;;;21.33;3.27;;;;;;;3.31;98.25;96583.48;1791318;80;28296;-58
2023/12/22 03:53:26;;;;;;;14.60;3.72;;;;;;;3.29;97.70;96600.42;1790850;80;25949;-57
2023/12/22 03:55:56;;;;;;;16.10;3.52;;;;;;;3.27;98.55;96592.76;1790935;80;25506;-58
2023/12/22 03:58:26;;;;;;;20.37;3.20;;;;;;;3.25;97.65;96592.34;1791030;80;25534;-58
2023/12/22 04:00:54;;;;;;;18.75;3.92;;;;;;;3.25;97.88;96586.20;1791149;80;25383;-58
2023/12/22 04:03:22;;;;;;;17.10;4.30;;;;;;;3.22;97.95;96618.41;1764123;80;28093;-56
2023/12/22 04:05:51;;;;;;;11.50;3.15;;;;;;;3.21;97.84;96598.73;1791022;80;30118;-58
2023/12/22 04:08:20;;;;;;;18.05;3.83;;;;;;;3.18;98.57;96594.84;1791084;80;25592;-57
2023/12/22 04:10:49;;;;;;;11.00;3.12;;;;;;;3.15;98.74;96595.53;1790864;80;25505;-56
2023/12/22 04:13:17;;;;;;;13.80;3.85;;;;;;;3.12;98.54;96594.92;1790961;80;25669;-56
2023/12/22 04:15:44;;;;;;;11.73;3.22;;;;;;;3.11;99.17;96602.14;1790937;80;27541;-57
2023/12/22 04:18:13;;;;;;;14.55;3.58;;;;;;;3.09;98.95;96600.39;1790888;80;26239;-57
2023/12/22 04:20:43;;;;;;;11.85;3.22;;;;;;;3.07;99.20;96595.20;1791115;80;25428;-58
2023/12/22 04:23:12;;;;;;;12.85;4.12;;;;;;;3.08;99.27;96603.41;1791087;80;26135;-57
2023/12/22 04:25:40;;;;;;;13.53;3.50;;;;;;;3.07;99.23;96594.63;1791136;80;25452;-58
2023/12/22 04:28:09;;;;;;;12.33;3.47;;;;;;;3.06;99.18;96608.33;1790952;80;28524;-57
2023/12/22 04:30:37;;;;;;;12.20;3.85;;;;;;;3.04;99.47;96611.34;1790954;80;25704;-58
2023/12/22 04:33:05;;;;;;;18.37;3.92;;;;;;;3.02;98.82;96601.58;1790941;80;25430;-57
2023/12/22 04:35:35;;;;;;;19.92;3.70;;;;;;;3.02;98.73;96592.80;1791053;80;25559;-54
2023/12/22 04:38:01;;;;;;;12.53;3.30;;;;;;;3.01;98.41;96609.36;1790936;80;25416;-57
2023/12/22 04:40:29;;;;;;;10.90;3.35;;;;;;;3.02;98.42;96588.23;1790902;80;27839;-55
2023/12/22 04:42:56;;;;;;;9.55;3.00;;;;;;;3.04;98.95;96597.23;1790831;80;25901;-57
2023/12/22 04:45:25;;;;;;;15.08;4.30;;;;;;;3.04;98.84;96593.98;1764369;80;25441;-57
2023/12/22 04:47:53;;;;;;;14.38;3.70;;;;;;;3.04;98.29;96587.31;1764172;80;25888;-57
2023/12/22 04:50:21;;;;;;;10.58;3.42;;;;;;;3.05;97.49;96596.09;1790887;80;25400;-57
2023/12/22 04:52:50;;;;;;;13.55;3.33;;;;;;;3.06;97.16;96597.08;1790843;80;27920;-56
2023/12/22 04:55:18;;;;;;;14.70;3.40;;;;;;;3.08;96.44;96601.53;1790803;80;25641;-57
2023/12/22 04:57:44;;;;;;;16.90;3.45;;;;;;;3.11;96.63;96612.06;1764189;80;25526;-57
2023/12/22 05:00:15;;;;;;;14.60;3.08;;;;;;;3.12;96.26;96620.30;1790883;80;27627;-58
2023/12/22 05:02:43;;;;;;;11.35;3.17;;;;;;;3.13;96.58;96622.62;1791152;80;28030;-58
2023/12/22 05:05:11;;;;;;;19.57;4.12;;;;;;;3.13;95.15;96613.27;1791087;80;28453;-57
2023/12/22 05:07:40;;;;;;;17.35;3.47;;;;;;;3.14;95.28;96619.38;1791014;80;25491;-57
2023/12/22 05:10:09;;;;;;;14.13;3.12;;;;;;;3.13;92.90;96637.30;1791053;80;25539;-58
2023/12/22 05:12:37;;;;;;;12.80;3.33;;;;;;;3.12;94.06;96623.73;1791076;80;26164;-58
2023/12/22 05:15:06;;;;;;;9.60;2.75;;;;;;;3.11;93.97;96614.16;1791159;80;25573;-57
2023/12/22 05:17:34;;;;;;;17.60;3.77;;;;;;;3.10;95.00;96629.19;1764421;80;28152;-57
2023/12/22 05:20:01;;;;;;;17.90;5.33;;;;;;;3.09;94.61;96631.67;1791092;80;25656;-56
2023/12/22 05:22:31;;;;;;;15.78;3.10;;;;;;;3.07;94.78;96622.66;1791113;80;25551;-54
2023/12/22 05:24:58;;;;;;;15.20;3.98;;;;;;;3.05;94.47;96638.27;1791135;80;26231;-56
2023/12/22 05:27:28;;;;;;;15.32;3.83;;;;;;;3.05;94.22;96634.80;1764898;80;25499;-57
2023/12/22 05:30:01;;;;;;;13.85;3.22;;;;;;;3.02;94.34;96637.63;1791223;80;28193;-57
2023/12/22 05:32:26;;;;;;;;;;;;;;;3.00;93.67;96627.86;1792819;80;25792;-57
2023/12/22 05:34:52;;;;;;;16.55;3.47;;;;;;;2.97;93.83;96627.98;1791089;80;25454;-58
2023/12/22 05:37:20;;;;;;;12.73;3.05;;;;;;;2.96;92.74;96634.45;1791027;80;25755;-56
2023/12/22 05:39:48;;;;;;;11.33;3.25;;;;;;;2.99;94.00;96651.66;1791085;80;25392;-56
2023/12/22 05:42:16;;;;;;;16.15;3.60;;;;;;;2.99;94.47;96643.66;1791052;80;28273;-55
2023/12/22 05:44:46;;;;;;;16.37;3.08;;;;;;;2.98;94.23;96658.14;1790971;80;25631;-58
2023/12/22 05:47:14;;;;;;;11.25;3.85;;;;;;;2.96;93.89;96661.16;1791107;80;25449;-55
2023/12/22 05:49:43;;;;;;;15.60;2.87;;;;;;;2.96;94.53;96656.36;1791001;80;26160;-55
2023/12/22 05:52:11;;;;;;;11.90;3.20;;;;;;;2.95;94.15;96649.48;1791219;80;25632;-57
2023/12/22 05:54:39;;;;;;;11.30;2.80;;;;;;;2.95;94.52;96656.16;1732683;81;28515;-57
2023/12/22 05:57:07;;;;;;;15.35;3.30;;;;;;;2.92;94.72;96662.95;1755946;81;25817;-55
2023/12/22 05:59:35;;;;;;;12.95;2.95;;;;;;;2.92;94.34;96670.96;1756042;81;25586;-54
2023/12/22 06:02:03;;;;;;;12.10;3.17;;;;;;;2.90;94.87;96670.54;1755996;81;25801;-55
2023/12/22 06:04:31;;;;;;;14.93;3.10;;;;;;;2.89;95.18;96674.89;1756031;81;25420;-56
2023/12/22 06:07:00;;;;;;;11.60;2.90;;;;;;;2.84;94.75;96680.49;1756144;81;28759;-57
2023/12/22 06:09:28;;;;;;;20.35;3.98;;;;;;;2.83;95.31;96688.27;1755934;81;25857;-56
2023/12/22 06:11:57;;;;;;;20.55;3.72;;;;;;;2.77;95.00;96687.20;1756125;81;25706;-55
2023/12/22 06:14:25;;;;;;;17.00;3.27;;;;;;;2.70;95.32;96687.60;1755958;81;25564;-58
2023/12/22 06:16:56;;;;;;;18.25;3.55;;;;;;;2.68;95.19;96689.28;1756019;81;25493;-56
2023/12/22 06:19:28;;;;;;;17.55;3.27;;;;;;;2.64;95.81;96681.77;1756060;81;28211;-55
2023/12/22 06:21:54;;;;;;;19.65;3.85;;;;;;;2.61;96.15;96677.87;1755503;81;25570;-56
2023/12/22 06:24:22;;;;;;;19.37;3.37;;;;;;;2.58;95.46;96667.12;1755995;81;25561;-56
2023/12/22 06:26:50;;;;;;;19.55;3.52;;;;;;;2.54;95.87;96672.38;1755970;81;25574;-57
2023/12/22 06:29:17;;;;;;;14.58;3.30;;;;;;;2.54;96.11;96658.27;1756036;81;25444;-56
2023/12/22 06:31:50;;;;;;;17.50;3.55;;;;;;;2.52;96.07;96670.61;1755957;81;28529;-56
2023/12/22 06:34:14;;;;;;;13.15;3.00;;;;;;;2.52;95.22;96670.61;1755383;81;25493;-56
2023/12/22 06:36:40;;;;;;;15.88;3.40;;;;;;;2.51;95.44;96674.39;1755994;81;25412;-54
2023/12/22 06:39:09;;;;;;;14.05;3.50;;;;;;;2.53;94.55;96682.05;1755956;81;26545;-56
2023/12/22 06:41:39;;;;;;;17.07;3.00;;;;;;;2.55;94.60;96677.91;1756281;81;25467;-57
2023/12/22 06:44:07;;;;;;;23.90;5.05;;;;;;;2.58;94.53;96688.46;1732303;81;27485;-57
2023/12/22 06:46:35;;;;;;;13.80;3.00;;;;;;;2.60;94.17;96688.32;1755939;81;25387;-55
2023/12/22 06:49:03;;;;;;;8.60;2.60;;;;;;;2.63;92.22;96692.78;1732807;81;25502;-56
2023/12/22 06:51:35;;;;;;;19.07;3.50;;;;;;;2.69;93.18;96704.72;1755925;81;26660;-57
2023/12/22 06:54:04;;;;;;;19.17;3.45;;;;;;;2.69;92.18;96725.53;1776802;80;25541;-57
2023/12/22 06:56:33;;;;;;;;;;;;;;;2.75;90.45;96714.03;1793720;80;27657;-57
2023/12/22 06:59:02;;;;;;;17.80;3.55;;;;;;;2.78;91.46;96716.02;1791141;80;25826;-55
2023/12/22 07:01:32;;;;;;;18.35;4.70;;;;;;;2.79;91.46;96725.02;1791014;80;25619;-54
2023/12/22 07:04:01;;;;;;;11.63;2.85;;;;;;;2.80;91.02;96709.77;1791017;80;25496;-56
2023/12/22 07:06:35;;;;;;;13.95;2.58;;;;;;;2.82;89.90;96714.77;1764588;80;25392;-57
2023/12/22 07:09:20;;;;;;;17.80;2.75;;;;;;;2.81;87.37;96728.68;1791085;80;27461;-55
2023/12/22 07:11:52;;;;;;;12.18;2.10;;;;;;;2.87;85.22;96725.19;1790936;80;25445;-57
2023/12/22 07:14:19;;;;;;;12.53;2.20;;;;;;;2.91;86.48;96727.36;1791090;80;25443;-53
2023/12/22 07:16:47;;;;;;;14.90;2.50;;;;;;;2.91;84.40;96719.36;1790981;80;26594;-57
2023/12/22 07:19:15;;;;;;;9.40;2.72;;;;;;;2.94;83.33;96742.12;1791012;80;25583;-56
2023/12/22 07:21:44;;;;;;;14.75;2.80;;;;;;;2.96;81.37;96722.56;1791131;80;33114;-56
2023/12/22 07:24:12;;;;;;;13.58;2.83;;;;;;;3.00;82.40;96733.32;1790934;80;25429;-53
2023/12/22 07:26:41;;;;;;;18.37;2.90;;;;;;;2.99;81.27;96735.77;1791114;80;25373;-54
2023/12/22 07:29:08;;;;;;;11.83;2.85;;;;;;;3.04;79.12;96738.74;1790936;80;26217;-56
2023/12/22 07:31:37;;;;;;;16.60;2.77;;;;;;;3.06;80.18;96758.62;1790869;80;25530;-55
2023/12/22 07:34:05;;;;;;;18.50;3.42;;;;;;;3.06;80.42;96745.84;1764240;80;28055;-56
2023/12/22 07:36:33;;;;;;;12.28;2.62;;;;;;;3.07;78.94;96752.73;1790930;80;25194;-54
2023/12/22 07:39:03;;;;;;;16.00;3.10;;;;;;;3.07;79.22;96772.77;1791257;80;25499;-55
2023/12/22 07:41:30;;;;;;;15.75;2.87;;;;;;;3.07;77.41;96766.09;1791006;80;25498;-55
2023/12/22 07:43:57;;;;;;;15.45;2.67;;;;;;;3.08;78.59;96766.29;1791023;80;25519;-57
2023/12/22 07:46:25;;;;;;;15.43;2.65;;;;;;;3.07;78.86;96776.77;1790998;80;28487;-56
2023/12/22 07:48:53;;;;;;;15.13;3.10;;;;;;;3.07;76.66;96776.20;1790898;80;26046;-56
2023/12/22 07:51:21;;;;;;;13.32;2.55;;;;;;;3.06;78.35;96771.97;1790989;80;25535;-56
2023/12/22 07:53:48;;;;;;;21.12;3.45;;;;;;;3.05;79.38;96785.13;1790655;80;26376;-55
2023/12/22 07:56:16;;;;;;;13.13;2.85;;;;;;;3.06;78.42;96781.31;1790965;80;25555;-55
2023/12/22 07:58:44;;;;;;;12.58;2.37;;;;;;;3.06;76.68;96784.56;1790964;80;28213;-55
2023/12/22 08:01:15;;;;;;;14.90;3.17;;;;;;;3.07;78.17;96788.78;1791040;80;26452;-57
2023/12/22 08:03:43;;;;;;;11.25;2.92;;;;;;;3.06;77.57;96805.34;1791105;80;25468;-55
2023/12/22 08:06:13;;;;;;;12.80;2.37;;;;;;;3.06;76.71;96792.56;1790926;80;26263;-55
2023/12/22 08:08:41;;;;;;;15.43;2.47;;;;;;;3.05;75.04;96813.16;1790608;80;25645;-56
2023/12/22 08:11:08;;;;;;;9.68;2.15;;;;;;;3.04;77.25;96806.83;1738947;80;27098;-56
2023/12/22 08:13:38;;;;;;;8.38;2.22;;;;;;;3.05;75.50;96811.03;1790966;80;26036;-55
2023/12/22 08:16:06;;;;;;;14.78;2.75;;;;;;;3.10;75.34;96814.23;1790925;80;25620;-54
2023/12/22 08:18:35;;;;;;;8.13;2.27;;;;;;;3.18;75.14;96808.50;1791189;80;25535;-54
2023/12/22 08:21:04;;;;;;;14.10;2.45;;;;;;;3.28;76.65;96809.31;1790978;80;25457;-55
2023/12/22 08:23:32;;;;;;;10.63;4.45;;;;;;;3.54;79.17;96811.45;1791147;80;27468;-58
2023/12/22 08:25:59;;;;;;;12.75;2.85;;;;;;;3.89;77.92;96817.93;1763986;80;25615;-57
2023/12/22 08:28:26;;;;;;;14.75;3.58;;;;;;;3.93;73.59;96822.24;1790973;80;25410;-55
2023/12/22 08:30:54;;;;;;;16.85;3.65;;;;;;;3.87;72.72;96808.16;1764444;80;26684;-56
2023/12/22 08:33:20;;;;;;;15.15;2.77;;;;;;;3.84;72.89;96812.28;1790946;80;25620;-55
2023/12/22 08:35:50;;;;;;;14.80;2.27;;;;;;;3.87;74.01;96822.29;1790950;80;28608;-56
2023/12/22 08:38:17;;;;;;;10.28;2.90;;;;;;;3.95;72.72;96819.22;1790846;80;25563;-54
2023/12/22 08:40:46;;;;;;;11.68;2.35;;;;;;;4.11;70.43;96809.22;1791102;80;25416;-57
2023/12/22 08:43:15;;;;;;;15.48;2.80;;;;;;;4.22;73.15;96818.82;1764678;80;26098;-53
2023/12/22 08:45:44;;;;;;;14.63;3.08;;;;;;;4.41;73.15;96836.77;1791109;80;25619;-58
2023/12/22 08:48:12;;;;;;;13.10;2.27;;;;;;;4.53;72.15;96829.17;1790968;80;28296;-58
2023/12/22 08:50:39;;;;;;;14.58;2.85;;;;;;;4.78;72.64;96830.95;1763953;80;25725;-58
2023/12/22 08:53:05;;;;;;;13.93;2.80;;;;;;;5.02;73.49;96828.53;1790863;80;25464;-54
2023/12/22 08:55:33;;;;;;;12.18;2.80;;;;;;;5.04;71.59;96833.53;1790769;80;26299;-59
2023/12/22 08:58:00;;;;;;;15.32;2.58;;;;;;;5.10;72.96;96813.91;1790952;80;25588;-55
2023/12/22 09:00:28;;;;;;;12.13;2.35;;;;;;;5.09;70.74;96820.39;1790939;80;28354;-57
2023/12/22 09:02:56;;;;;;;12.68;3.08;;;;;;;5.20;70.23;96812.73;1790840;80;25620;-56
2023/12/22 09:05:24;;;;;;;16.55;3.12;;;;;;;5.31;69.24;96827.67;1790928;80;25576;-54
2023/12/22 09:07:52;;;;;;;10.28;2.55;;;;;;;5.30;69.05;96828.79;1790879;80;25630;-58
2023/12/22 09:10:22;;;;;;;12.63;2.60;;;;;;;5.44;71.78;96802.77;1764149;80;25488;-57
2023/12/22 09:12:51;;;;;;;11.90;3.08;;;;;;;5.74;72.64;96820.27;1790923;80;27321;-54
2023/12/22 09:15:17;;;;;;;11.77;2.20;;;;;;;5.88;68.39;96818.92;1791073;80;25686;-56
2023/12/22 09:17:47;;;;;;;13.22;2.83;;;;;;;5.96;70.50;96807.95;1790925;80;25443;-56
2023/12/22 09:20:15;;;;;;;9.60;2.47;;;;;;;6.13;70.00;96805.30;1790899;80;25614;-56
2023/12/22 09:22:42;;;;;;;13.60;2.62;;;;;;;6.14;70.88;96827.53;1764081;80;25634;-55
2023/12/22 09:25:10;;;;;;;11.68;2.65;;;;;;;6.08;68.00;96805.62;1764147;80;27338;-58
2023/12/22 09:27:38;;;;;;;9.88;2.52;;;;;;;5.97;68.08;96811.41;1790848;80;25576;-57
2023/12/22 09:30:08;;;;;;;17.77;2.85;;;;;;;5.69;64.26;96829.20;1790926;80;25547;-57
2023/12/22 09:32:35;;;;;;;10.53;3.27;;;;;;;5.49;68.33;96798.45;1761611;80;25974;-57
2023/12/22 09:35:06;;;;;;;14.78;2.75;;;;;;;5.60;66.27;96785.98;1757780;81;25444;-56
2023/12/22 09:37:34;;;;;;;;;;;;;;;5.82;67.68;96790.86;1761758;81;28029;-56
2023/12/22 09:40:02;;;;;;;15.80;2.62;;;;;;;6.00;65.22;96806.66;1761762;80;25714;-57
2023/12/22 09:42:31;;;;;;;12.23;2.70;;;;;;;6.04;63.66;96797.31;1738506;81;25605;-58
2023/12/22 09:45:03;;;;;;;13.32;2.83;;;;;;;6.02;66.21;96786.17;1768561;81;25991;-57
2023/12/22 09:47:34;;;;;;;14.35;3.15;;;;;;;6.11;66.33;96787.45;1768668;81;25478;-56
2023/12/22 09:50:03;;;;;;;10.85;2.15;;;;;;;6.02;63.71;96799.59;1768709;81;27328;-58
2023/12/22 09:52:33;;;;;;;16.10;2.75;;;;;;;5.71;64.87;96790.72;1738546;81;25636;-59
2023/12/22 09:55:04;;;;;;;11.55;2.42;;;;;;;5.56;65.09;96772.31;1768563;81;25448;-57
2023/12/22 09:57:33;;;;;;;14.00;2.58;;;;;;;5.63;66.69;96806.50;1768778;81;26016;-59
2023/12/22 10:00:06;;;;;;;11.18;2.60;;;;;;;5.63;64.37;96759.00;1768938;81;25440;-58
2023/12/22 10:02:36;;;;;;;9.93;2.20;;;;;;;5.75;65.66;96758.78;1768710;81;27364;-57
2023/12/22 10:05:05;;;;;;;12.45;2.40;;;;;;;5.55;66.04;96762.16;1768705;81;25644;-58
2023/12/22 10:07:35;;;;;;;12.45;2.42;;;;;;;5.40;65.91;96754.48;1768891;81;25408;-58
2023/12/22 10:10:06;;;;;;;8.58;2.00;;;;;;;5.22;66.26;96741.38;1768753;81;26056;-58
2023/12/22 10:12:35;;;;;;;13.25;2.62;;;;;;;5.04;66.03;96757.95;1738482;81;25595;-59
2023/12/22 10:15:25;;;;;;;8.93;1.85;;;;;;;4.78;64.49;96741.25;1768903;81;27533;-59
2023/12/22 10:17:54;;;;;;;10.58;2.75;;;;;;;4.59;66.20;96742.66;1657833;85;25255;-60
2023/12/22 10:20:23;;;;;;;6.25;2.10;;;;;;;4.40;66.79;96739.45;1609553;86;25589;-59
2023/12/22 10:22:51;;;;;;;7.80;2.55;;;;;;;4.23;67.68;96727.30;1657679;86;25621;-59
2023/12/22 10:25:22;;;;;;;8.98;1.72;;;;;;;4.10;68.25;96749.39;1609557;86;25549;-59
2023/12/22 10:27:52;;;;;;;10.75;2.22;;;;;;;3.90;70.36;96792.75;1634220;86;27381;-59
2023/12/22 10:30:20;;;;;;;7.70;2.08;;;;;;;3.45;73.67;96791.38;1657665;86;25626;-60
2023/12/22 10:32:52;;;;;;;7.03;1.67;;;;;;;3.03;74.57;96827.96;1657701;86;25449;-60
2023/12/22 10:35:22;;;;;;;8.88;2.15;;;;;;;2.71;75.64;96793.24;1657698;86;26410;-60
2023/12/22 10:37:53;;;;;;;6.60;1.17;;;;;;;2.41;76.63;96789.59;1658012;86;25535;-61
2023/12/22 10:40:20;;;;;;;4.90;1.27;;;;;;;2.18;77.29;96806.67;1657562;86;27802;-61
2023/12/22 10:42:50;;;;;;;3.70;1.50;;;;;;;1.93;78.09;96815.32;1657626;86;25699;-59
2023/12/22 10:45:19;;;;;;;;;;;;;;;1.70;79.38;96830.44;1660255;86;25722;-60
2023/12/22 10:47:53;;;;;;;;;;;;;;;1.48;81.92;96825.81;1659776;86;25504;-58
2023/12/22 10:50:24;;;;;;;6.28;1.27;;;;;;;1.23;84.26;96824.25;1657825;86;25436;-61
2023/12/22 10:52:53;;;;;;;7.12;1.20;;;;;;;0.99;84.17;96832.43;1657729;86;27527;-60
2023/12/22 10:55:21;;;;;;;4.17;0.95;;;;;;;0.81;86.18;96844.36;1682804;84;25695;-61
2023/12/22 10:57:49;;;;;;;1.85;0.80;;;;;;;0.66;86.55;96836.44;1669136;84;25536;-61
2023/12/22 11:00:21;;;;;;;1.53;0.70;;;;;;;0.51;87.58;96824.53;1697291;84;26274;-62
2023/12/22 11:02:50;;;;;;;0.95;0.60;;;;;;;0.41;89.32;96825.73;1697187;84;25596;-61
2023/12/22 11:05:20;;;;;;;2.30;0.90;;;;;;;0.30;89.57;96817.92;1697134;84;27385;-60
2023/12/22 11:07:55;;;;;;;1.87;0.80;;;;;;;0.21;90.72;96810.59;1697068;84;25520;-61
2023/12/22 11:10:24;;;;;;;3.58;0.93;;;;;;;0.10;91.11;96795.04;1669175;84;25458;-60
2023/12/22 11:12:55;;;;;;;3.83;1.12;;;;;;;0.07;91.13;96789.56;1697028;84;26459;-60
2023/12/22 11:15:26;;;;;;;3.02;1.00;;;;;;;0.04;92.39;96777.72;1697145;84;25589;-61
2023/12/22 11:17:57;;;;;;;5.78;1.32;;;;;;;0.03;92.04;96757.56;1696975;84;27564;-60
2023/12/22 11:20:28;;;;;;;4.08;1.25;;;;;;;0.10;93.14;96768.99;1692687;84;25708;-61
2023/12/22 11:22:58;;;;;;;4.03;1.25;;;;;;;0.14;93.12;96746.77;1697127;84;25426;-61
2023/12/22 11:25:29;;;;;;;5.45;1.50;;;;;;;0.26;93.28;96747.92;1697077;84;26048;-61
2023/12/22 11:27:59;;;;;;;5.42;1.50;;;;;;;0.48;93.77;96748.09;1697165;84;25428;-61
2023/12/22 11:30:29;;;;;;;5.17;1.65;;;;;;;0.98;95.03;96738.28;1692528;84;27422;-61
2023/12/22 11:32:59;;;;;;;5.90;1.50;;;;;;;1.67;96.44;96739.98;1696902;84;25751;-61
2023/12/22 11:35:28;;;;;;;6.40;1.77;;;;;;;2.31;96.22;96718.08;1697018;84;25559;-60
2023/12/22 11:37:58;;;;;;;6.92;1.57;;;;;;;2.94;95.67;96728.02;1669114;84;25840;-59
2023/12/22 11:40:26;;;;;;;8.60;2.00;;;;;;;3.39;93.77;96739.32;1697094;84;25409;-59